sensor_id;sensor_type;location;lat;lon;timestamp;pressure;altitude;pressure_sealevel;temperature;humidity
69187;BME280;56301;56.864;60.554;2023-03-25T00:01:01;97576.75;;;24.81;43.42
69187;BME280;56301;56.864;60.554;2023-03-25T00:03:28;97572.38;;;24.80;43.52
69187;BME280;56301;56.864;60.554;2023-03-25T00:05:54;97574.06;;;24.81;42.97
69187;BME280;56301;56.864;60.554;2023-03-25T00:08:17;97566.97;;;24.80;42.89
69187;BME280;56301;56.864;60.554;2023-03-25T00:10:40;97572.81;;;24.77;43.33
69187;BME280;56301;56.864;60.554;2023-03-25T00:13:02;97572.81;;;24.77;43.67
69187;BME280;56301;56.864;60.554;2023-03-25T00:15:24;97565.72;;;24.76;43.10
69187;BME280;56301;56.864;60.554;2023-03-25T00:17:47;97567.41;;;24.77;43.50
69187;BME280;56301;56.864;60.554;2023-03-25T00:20:10;97559.31;;;24.77;43.42
69187;BME280;56301;56.864;60.554;2023-03-25T00:22:33;97558.44;;;24.76;43.29
69187;BME280;56301;56.864;60.554;2023-03-25T00:24:56;97561.16;;;24.76;43.83
69187;BME280;56301;56.864;60.554;2023-03-25T00:27:18;97562.00;;;24.77;42.78
69187;BME280;56301;56.864;60.554;2023-03-25T00:29:41;97554.72;;;24.77;43.13
69187;BME280;56301;56.864;60.554;2023-03-25T00:32:03;97551.78;;;24.79;43.49
69187;BME280;56301;56.864;60.554;2023-03-25T00:34:26;97551.19;;;24.77;43.67
69187;BME280;56301;56.864;60.554;2023-03-25T00:36:48;97548.69;;;24.75;43.80
69187;BME280;56301;56.864;60.554;2023-03-25T00:39:11;97551.59;;;24.73;43.67
69187;BME280;56301;56.864;60.554;2023-03-25T00:41:33;97548.69;;;24.75;43.55
69187;BME280;56301;56.864;60.554;2023-03-25T00:43:57;97552.00;;;24.77;43.60
69187;BME280;56301;56.864;60.554;2023-03-25T00:46:20;97551.19;;;24.77;43.25
69187;BME280;56301;56.864;60.554;2023-03-25T00:48:42;97540.56;;;24.75;43.70
69187;BME280;56301;56.864;60.554;2023-03-25T00:51:05;97539.09;;;24.72;43.46
69187;BME280;56301;56.864;60.554;2023-03-25T00:53:28;97537.25;;;24.73;43.25
69187;BME280;56301;56.864;60.554;2023-03-25T00:55:52;97529.97;;;24.73;43.40
69187;BME280;56301;56.864;60.554;2023-03-25T00:58:18;97539.09;;;24.72;43.42
69187;BME280;56301;56.864;60.554;2023-03-25T01:00:41;97533.69;;;24.72;43.15
69187;BME280;56301;56.864;60.554;2023-03-25T01:03:03;97531.41;;;24.76;43.19
69187;BME280;56301;56.864;60.554;2023-03-25T01:05:26;97527.88;;;24.76;43.58
69187;BME280;56301;56.864;60.554;2023-03-25T01:07:48;97525.97;;;24.76;43.40
69187;BME280;56301;56.864;60.554;2023-03-25T01:10:10;97526.22;;;24.74;43.14
69187;BME280;56301;56.864;60.554;2023-03-25T01:12:33;97519.16;;;24.73;43.05
69187;BME280;56301;56.864;60.554;2023-03-25T01:14:55;97521.84;;;24.73;42.99
69187;BME280;56301;56.864;60.554;2023-03-25T01:17:18;97527.03;;;24.75;43.43
69187;BME280;56301;56.864;60.554;2023-03-25T01:19:40;97509.97;;;24.74;43.56
69187;BME280;56301;56.864;60.554;2023-03-25T01:22:03;97507.91;;;24.77;42.69
69187;BME280;56301;56.864;60.554;2023-03-25T01:24:25;97511.63;;;24.76;43.61
69187;BME280;56301;56.864;60.554;2023-03-25T01:26:48;97509.97;;;24.74;43.20
69187;BME280;56301;56.864;60.554;2023-03-25T01:29:11;97503.50;;;24.76;43.40
69187;BME280;56301;56.864;60.554;2023-03-25T01:31:34;97501.88;;;24.74;43.16
69187;BME280;56301;56.864;60.554;2023-03-25T01:33:56;97505.41;;;24.75;43.18
69187;BME280;56301;56.864;60.554;2023-03-25T01:36:19;97498.34;;;24.74;43.46
69187;BME280;56301;56.864;60.554;2023-03-25T01:38:42;97500.22;;;24.73;43.42
69187;BME280;56301;56.864;60.554;2023-03-25T01:41:05;97500.22;;;24.73;43.39
69187;BME280;56301;56.864;60.554;2023-03-25T01:43:27;97505.41;;;24.75;42.90
69187;BME280;56301;56.864;60.554;2023-03-25T01:45:50;97511.22;;;24.79;43.28
69187;BME280;56301;56.864;60.554;2023-03-25T01:48:14;97509.72;;;24.83;42.51
69187;BME280;56301;56.864;60.554;2023-03-25T01:50:40;97500.13;;;24.87;43.19
69187;BME280;56301;56.864;60.554;2023-03-25T01:53:04;97499.13;;;24.88;43.30
69187;BME280;56301;56.864;60.554;2023-03-25T01:55:28;97494.53;;;24.88;43.66
69187;BME280;56301;56.864;60.554;2023-03-25T01:57:52;97490.78;;;24.89;43.08
69187;BME280;56301;56.864;60.554;2023-03-25T02:00:15;97487.25;;;24.89;43.49
69187;BME280;56301;56.864;60.554;2023-03-25T02:02:38;97483.69;;;24.88;42.94
69187;BME280;56301;56.864;60.554;2023-03-25T02:05:03;97486.59;;;24.87;43.08
69187;BME280;56301;56.864;60.554;2023-03-25T02:07:26;97481.19;;;24.87;43.58
69187;BME280;56301;56.864;60.554;2023-03-25T02:09:49;97473.72;;;24.89;42.78
69187;BME280;56301;56.864;60.554;2023-03-25T02:12:11;97479.94;;;24.89;43.34
69187;BME280;56301;56.864;60.554;2023-03-25T02:14:34;97474.53;;;24.89;43.56
69187;BME280;56301;56.864;60.554;2023-03-25T02:29:49;97467.25;;;24.90;43.09
69187;BME280;56301;56.864;60.554;2023-03-25T02:34:43;97464.53;;;24.90;43.08
69187;BME280;56301;56.864;60.554;2023-03-25T02:37:15;97454.53;;;24.90;43.32
69187;BME280;56301;56.864;60.554;2023-03-25T02:39:52;97458.06;;;24.91;43.02
69187;BME280;56301;56.864;60.554;2023-03-25T02:44:56;97458.06;;;24.91;43.27
69187;BME280;56301;56.864;60.554;2023-03-25T02:47:21;97458.31;;;24.89;43.01
69187;BME280;56301;56.864;60.554;2023-03-25T02:49:50;97461.00;;;24.89;43.06
69187;BME280;56301;56.864;60.554;2023-03-25T02:52:20;97453.94;;;24.88;43.56
69187;BME280;56301;56.864;60.554;2023-03-25T02:54:45;97444.78;;;24.89;43.29
69187;BME280;56301;56.864;60.554;2023-03-25T02:57:09;97451.25;;;24.88;42.98
69187;BME280;56301;56.864;60.554;2023-03-25T02:59:33;97441.25;;;24.89;42.81
69187;BME280;56301;56.864;60.554;2023-03-25T03:01:56;97439.34;;;24.89;43.04
69187;BME280;56301;56.864;60.554;2023-03-25T03:04:20;97435.00;;;24.88;43.21
69187;BME280;56301;56.864;60.554;2023-03-25T03:06:42;97441.25;;;24.89;42.98
69187;BME280;56301;56.864;60.554;2023-03-25T03:09:12;97442.06;;;24.89;43.28
69187;BME280;56301;56.864;60.554;2023-03-25T03:22:22;97437.28;;;24.91;42.75
69187;BME280;56301;56.864;60.554;2023-03-25T03:27:33;97427.47;;;24.90;43.32
69187;BME280;56301;56.864;60.554;2023-03-25T03:30:02;97423.94;;;24.90;42.55
69187;BME280;56301;56.864;60.554;2023-03-25T03:32:31;97426.66;;;24.90;42.86
69187;BME280;56301;56.864;60.554;2023-03-25T03:35:00;97414.19;;;24.89;43.49
69187;BME280;56301;56.864;60.554;2023-03-25T03:37:26;97418.53;;;24.90;43.55
69187;BME280;56301;56.864;60.554;2023-03-25T03:39:49;97419.59;;;24.89;43.01
69187;BME280;56301;56.864;60.554;2023-03-25T03:42:24;97416.25;;;24.87;42.85
69187;BME280;56301;56.864;60.554;2023-03-25T03:44:51;97415.03;;;24.83;43.51
69187;BME280;56301;56.864;60.554;2023-03-25T03:47:17;97413.41;;;24.82;43.57
69187;BME280;56301;56.864;60.554;2023-03-25T03:49:43;97415.47;;;24.80;43.53
69187;BME280;56301;56.864;60.554;2023-03-25T03:52:12;97410.06;;;24.80;43.51
69187;BME280;56301;56.864;60.554;2023-03-25T03:54:37;97396.34;;;24.81;43.57
69187;BME280;56301;56.864;60.554;2023-03-25T03:57:05;97402.97;;;24.85;42.90
69187;BME280;56301;56.864;60.554;2023-03-25T03:59:44;97393.59;;;24.88;42.79
69187;BME280;56301;56.864;60.554;2023-03-25T04:02:27;97393.59;;;24.88;43.44
69187;BME280;56301;56.864;60.554;2023-03-25T04:04:51;97395.25;;;24.89;43.03
69187;BME280;56301;56.864;60.554;2023-03-25T04:07:15;97384.44;;;24.89;43.50
69187;BME280;56301;56.864;60.554;2023-03-25T04:09:56;97392.53;;;24.89;42.88
69187;BME280;56301;56.864;60.554;2023-03-25T04:12:28;97387.56;;;24.86;43.41
69187;BME280;56301;56.864;60.554;2023-03-25T04:14:51;97383.41;;;24.83;43.46
69187;BME280;56301;56.864;60.554;2023-03-25T04:17:14;97379.69;;;24.84;42.97
69187;BME280;56301;56.864;60.554;2023-03-25T04:19:36;97382.97;;;24.86;42.79
69187;BME280;56301;56.864;60.554;2023-03-25T04:21:59;97385.03;;;24.91;43.32
69187;BME280;56301;56.864;60.554;2023-03-25T04:24:22;97381.72;;;24.89;43.30
69187;BME280;56301;56.864;60.554;2023-03-25T04:26:44;97385.47;;;24.88;44.03
69187;BME280;56301;56.864;60.554;2023-03-25T04:29:07;97389.00;;;24.88;43.56
69187;BME280;56301;56.864;60.554;2023-03-25T04:31:30;97379.22;;;24.87;43.06
69187;BME280;56301;56.864;60.554;2023-03-25T04:33:52;97381.72;;;24.89;42.99
69187;BME280;56301;56.864;60.554;2023-03-25T04:36:15;97383.38;;;24.90;42.69
69187;BME280;56301;56.864;60.554;2023-03-25T04:38:38;97385.47;;;24.88;43.44
69187;BME280;56301;56.864;60.554;2023-03-25T04:41:00;97372.78;;;24.88;43.45
69187;BME280;56301;56.864;60.554;2023-03-25T04:43:23;97376.50;;;24.87;43.68
69187;BME280;56301;56.864;60.554;2023-03-25T04:45:45;97376.31;;;24.89;43.23
69187;BME280;56301;56.864;60.554;2023-03-25T04:48:11;97381.28;;;24.92;43.20
69187;BME280;56301;56.864;60.554;2023-03-25T04:50:41;97372.75;;;24.95;43.25
69187;BME280;56301;56.864;60.554;2023-03-25T04:53:03;97377.09;;;24.96;43.15
69187;BME280;56301;56.864;60.554;2023-03-25T04:55:26;97373.34;;;24.97;43.33
69187;BME280;56301;56.864;60.554;2023-03-25T04:57:49;97365.84;;;24.99;43.36
69187;BME280;56301;56.864;60.554;2023-03-25T05:00:13;97369.13;;;25.01;43.44
69187;BME280;56301;56.864;60.554;2023-03-25T05:02:36;97358.31;;;25.01;43.96
69187;BME280;56301;56.864;60.554;2023-03-25T05:04:59;97363.28;;;25.11;43.67
69187;BME280;56301;56.864;60.554;2023-03-25T05:07:21;97355.44;;;25.28;43.34
69187;BME280;56301;56.864;60.554;2023-03-25T05:09:44;97362.31;;;25.92;41.56
69187;BME280;56301;56.864;60.554;2023-03-25T05:12:07;97353.34;;;26.47;39.89
69187;BME280;56301;56.864;60.554;2023-03-25T05:14:30;97361.28;;;26.30;40.89
69187;BME280;56301;56.864;60.554;2023-03-25T05:16:53;97356.22;;;26.33;40.07
69187;BME280;56301;56.864;60.554;2023-03-25T05:19:16;97361.56;;;26.40;40.16
69187;BME280;56301;56.864;60.554;2023-03-25T05:21:39;97343.75;;;26.62;40.06
69187;BME280;56301;56.864;60.554;2023-03-25T05:24:02;97343.63;;;26.99;38.31
69187;BME280;56301;56.864;60.554;2023-03-25T05:26:25;97340.19;;;26.92;38.93
69187;BME280;56301;56.864;60.554;2023-03-25T05:28:47;97336.81;;;26.67;38.93
69187;BME280;56301;56.864;60.554;2023-03-25T05:31:10;97337.16;;;26.58;39.57
69187;BME280;56301;56.864;60.554;2023-03-25T05:33:33;97338.25;;;26.69;39.13
69187;BME280;56301;56.864;60.554;2023-03-25T05:35:56;97330.88;;;26.88;38.13
69187;BME280;56301;56.864;60.554;2023-03-25T05:38:18;97339.72;;;26.95;38.42
69187;BME280;56301;56.864;60.554;2023-03-25T05:40:41;97323.03;;;27.22;37.92
69187;BME280;56301;56.864;60.554;2023-03-25T05:43:04;97329.06;;;27.71;38.08
69187;BME280;56301;56.864;60.554;2023-03-25T05:45:27;97311.28;;;28.55;36.39
69187;BME280;56301;56.864;60.554;2023-03-25T05:47:49;97315.59;;;29.31;34.66
69187;BME280;56301;56.864;60.554;2023-03-25T05:50:12;97320.66;;;30.92;32.26
69187;BME280;56301;56.864;60.554;2023-03-25T05:52:36;97309.56;;;31.36;31.63
69187;BME280;56301;56.864;60.554;2023-03-25T05:54:58;97305.38;;;31.66;30.90
69187;BME280;56301;56.864;60.554;2023-03-25T05:57:21;97304.31;;;31.67;31.32
69187;BME280;56301;56.864;60.554;2023-03-25T05:59:44;97303.50;;;31.67;31.46
69187;BME280;56301;56.864;60.554;2023-03-25T06:02:07;97300.41;;;32.05;30.40
69187;BME280;56301;56.864;60.554;2023-03-25T06:04:34;97305.94;;;31.63;30.69
69187;BME280;56301;56.864;60.554;2023-03-25T06:06:57;97298.00;;;30.43;32.75
69187;BME280;56301;56.864;60.554;2023-03-25T06:09:19;97297.81;;;29.28;35.50
69187;BME280;56301;56.864;60.554;2023-03-25T06:11:42;97296.66;;;28.45;36.04
69187;BME280;56301;56.864;60.554;2023-03-25T06:14:05;97304.19;;;28.02;36.83
69187;BME280;56301;56.864;60.554;2023-03-25T06:16:27;97298.09;;;27.83;37.57
69187;BME280;56301;56.864;60.554;2023-03-25T06:18:50;97299.53;;;27.63;39.11
69187;BME280;56301;56.864;60.554;2023-03-25T06:21:12;97293.75;;;27.35;39.13
69187;BME280;56301;56.864;60.554;2023-03-25T06:23:35;97298.22;;;27.30;40.31
69187;BME280;56301;56.864;60.554;2023-03-25T06:25:58;97304.28;;;27.20;40.03
69187;BME280;56301;56.864;60.554;2023-03-25T06:28:20;97296.34;;;27.19;39.99
69187;BME280;56301;56.864;60.554;2023-03-25T06:30:46;97288.78;;;27.09;40.57
69187;BME280;56301;56.864;60.554;2023-03-25T06:33:09;97293.81;;;26.94;41.37
69187;BME280;56301;56.864;60.554;2023-03-25T06:35:32;97280.59;;;26.97;40.33
69187;BME280;56301;56.864;60.554;2023-03-25T06:37:55;97280.38;;;26.99;41.37
69187;BME280;56301;56.864;60.554;2023-03-25T06:40:26;97279.31;;;27.00;41.18
69187;BME280;56301;56.864;60.554;2023-03-25T06:42:49;97278.34;;;26.94;41.29
69187;BME280;56301;56.864;60.554;2023-03-25T06:45:37;97281.31;;;26.93;41.25
69187;BME280;56301;56.864;60.554;2023-03-25T06:48:17;97274.69;;;26.88;41.72
69187;BME280;56301;56.864;60.554;2023-03-25T06:50:40;97268.56;;;26.93;41.75
69187;BME280;56301;56.864;60.554;2023-03-25T06:53:03;97264.75;;;26.94;41.01
69187;BME280;56301;56.864;60.554;2023-03-25T06:55:25;97268.53;;;26.70;41.20
69187;BME280;56301;56.864;60.554;2023-03-25T06:57:48;97277.56;;;26.03;41.86
69187;BME280;56301;56.864;60.554;2023-03-25T07:00:11;97278.31;;;25.55;42.83
69187;BME280;56301;56.864;60.554;2023-03-25T07:02:34;97273.63;;;25.26;42.59
69187;BME280;56301;56.864;60.554;2023-03-25T07:04:57;97265.97;;;24.91;44.00
69187;BME280;56301;56.864;60.554;2023-03-25T07:07:19;97259.75;;;24.90;43.79
69187;BME280;56301;56.864;60.554;2023-03-25T07:09:42;97245.06;;;24.80;44.22
69187;BME280;56301;56.864;60.554;2023-03-25T07:12:04;97248.13;;;24.58;43.88
69187;BME280;56301;56.864;60.554;2023-03-25T07:14:28;97252.13;;;24.81;43.57
69187;BME280;56301;56.864;60.554;2023-03-25T07:16:50;97251.19;;;24.68;43.24
69187;BME280;56301;56.864;60.554;2023-03-25T07:19:13;97242.28;;;24.61;43.24
69187;BME280;56301;56.864;60.554;2023-03-25T07:21:35;97235.06;;;24.55;41.22
69187;BME280;56301;56.864;60.554;2023-03-25T07:23:58;97243.97;;;24.24;40.95
69187;BME280;56301;56.864;60.554;2023-03-25T07:26:21;97237.84;;;24.03;39.17
69187;BME280;56301;56.864;60.554;2023-03-25T07:28:44;97233.94;;;23.93;37.19
69187;BME280;56301;56.864;60.554;2023-03-25T07:31:10;97242.81;;;23.68;35.83
69187;BME280;56301;56.864;60.554;2023-03-25T07:33:32;97230.13;;;23.55;37.19
69187;BME280;56301;56.864;60.554;2023-03-25T07:35:55;97242.03;;;23.41;37.90
69187;BME280;56301;56.864;60.554;2023-03-25T07:38:17;97243.41;;;23.64;39.19
69187;BME280;56301;56.864;60.554;2023-03-25T07:40:40;97226.84;;;24.05;39.11
69187;BME280;56301;56.864;60.554;2023-03-25T07:43:03;97228.06;;;24.47;36.88
69187;BME280;56301;56.864;60.554;2023-03-25T07:45:44;97242.97;;;24.57;37.28
69187;BME280;56301;56.864;60.554;2023-03-25T07:48:06;97210.56;;;24.50;36.81
69187;BME280;56301;56.864;60.554;2023-03-25T07:50:29;97209.94;;;24.16;36.25
69187;BME280;56301;56.864;60.554;2023-03-25T07:52:52;97215.00;;;23.54;41.92
69187;BME280;56301;56.864;60.554;2023-03-25T07:55:15;97216.63;;;24.07;39.97
69187;BME280;56301;56.864;60.554;2023-03-25T07:57:38;97232.25;;;24.37;40.06
69187;BME280;56301;56.864;60.554;2023-03-25T08:00:01;97223.53;;;24.41;39.08
69187;BME280;56301;56.864;60.554;2023-03-25T08:02:34;97210.22;;;24.40;39.43
69187;BME280;56301;56.864;60.554;2023-03-25T08:04:56;97217.28;;;24.41;38.34
69187;BME280;56301;56.864;60.554;2023-03-25T08:09:57;97204.47;;;24.80;38.46
69187;BME280;56301;56.864;60.554;2023-03-25T08:12:20;97204.31;;;25.00;37.71
69187;BME280;56301;56.864;60.554;2023-03-25T08:14:42;97203.63;;;25.04;37.60
69187;BME280;56301;56.864;60.554;2023-03-25T08:17:06;97195.13;;;25.01;36.91
69187;BME280;56301;56.864;60.554;2023-03-25T08:19:28;97206.41;;;24.97;36.42
69187;BME280;56301;56.864;60.554;2023-03-25T08:21:51;97208.91;;;24.99;36.58
69187;BME280;56301;56.864;60.554;2023-03-25T08:24:13;97212.75;;;25.10;38.72
69187;BME280;56301;56.864;60.554;2023-03-25T08:26:36;97213.44;;;25.24;39.41
69187;BME280;56301;56.864;60.554;2023-03-25T08:28:59;97207.75;;;25.32;40.14
69187;BME280;56301;56.864;60.554;2023-03-25T08:31:25;97207.88;;;25.37;40.35
69187;BME280;56301;56.864;60.554;2023-03-25T08:33:48;97207.44;;;25.40;41.03
69187;BME280;56301;56.864;60.554;2023-03-25T08:36:11;97215.13;;;25.43;40.75
69187;BME280;56301;56.864;60.554;2023-03-25T08:38:33;97202.53;;;25.49;40.45
69187;BME280;56301;56.864;60.554;2023-03-25T08:40:57;97196.22;;;25.55;40.48
69187;BME280;56301;56.864;60.554;2023-03-25T08:43:19;97207.88;;;25.55;41.01
69187;BME280;56301;56.864;60.554;2023-03-25T08:45:42;97200.13;;;25.59;40.32
69187;BME280;56301;56.864;60.554;2023-03-25T08:48:04;97198.25;;;25.59;40.95
69187;BME280;56301;56.864;60.554;2023-03-25T08:50:27;97201.34;;;25.63;40.88
69187;BME280;56301;56.864;60.554;2023-03-25T08:52:49;97189.22;;;25.65;40.57
69187;BME280;56301;56.864;60.554;2023-03-25T08:55:12;97197.47;;;25.70;40.85
69187;BME280;56301;56.864;60.554;2023-03-25T08:57:35;97201.88;;;25.72;41.00
69187;BME280;56301;56.864;60.554;2023-03-25T08:59:58;97207.88;;;25.74;41.50
69187;BME280;56301;56.864;60.554;2023-03-25T09:02:20;97191.97;;;25.77;40.94
69187;BME280;56301;56.864;60.554;2023-03-25T09:04:43;97207.59;;;25.82;40.83
69187;BME280;56301;56.864;60.554;2023-03-25T09:07:06;97207.66;;;25.93;42.02
69187;BME280;56301;56.864;60.554;2023-03-25T09:09:28;97184.81;;;26.01;41.84
69187;BME280;56301;56.864;60.554;2023-03-25T09:11:51;97194.59;;;26.02;41.29
69187;BME280;56301;56.864;60.554;2023-03-25T09:14:13;97189.78;;;26.04;41.44
69187;BME280;56301;56.864;60.554;2023-03-25T09:16:36;97173.53;;;26.04;42.01
69187;BME280;56301;56.864;60.554;2023-03-25T09:18:59;97182.59;;;26.10;42.53
69187;BME280;56301;56.864;60.554;2023-03-25T09:21:22;97190.16;;;26.08;42.19
69187;BME280;56301;56.864;60.554;2023-03-25T09:23:44;97187.09;;;26.16;41.91
69187;BME280;56301;56.864;60.554;2023-03-25T09:26:06;97186.28;;;26.15;42.18
69187;BME280;56301;56.864;60.554;2023-03-25T09:28:29;97200.66;;;26.16;44.25
69187;BME280;56301;56.864;60.554;2023-03-25T09:30:52;97188.38;;;26.13;44.05
69187;BME280;56301;56.864;60.554;2023-03-25T09:33:15;97193.81;;;26.13;44.99
69187;BME280;56301;56.864;60.554;2023-03-25T09:35:41;97200.28;;;26.12;45.68
69187;BME280;56301;56.864;60.554;2023-03-25T09:38:03;97185.91;;;26.12;45.14
69187;BME280;56301;56.864;60.554;2023-03-25T09:40:26;97179.06;;;26.09;45.14
69187;BME280;56301;56.864;60.554;2023-03-25T09:42:53;97183.78;;;26.14;46.04
69187;BME280;56301;56.864;60.554;2023-03-25T09:50:15;97185.66;;;26.02;47.07
69187;BME280;56301;56.864;60.554;2023-03-25T09:52:51;97187.16;;;25.98;47.67
69187;BME280;56301;56.864;60.554;2023-03-25T09:55:17;97179.72;;;25.93;47.14
69187;BME280;56301;56.864;60.554;2023-03-25T09:57:45;97179.94;;;25.91;47.55
69187;BME280;56301;56.864;60.554;2023-03-25T10:00:09;97180.63;;;25.87;47.12
69187;BME280;56301;56.864;60.554;2023-03-25T10:07:48;97184.69;;;25.78;47.70
69187;BME280;56301;56.864;60.554;2023-03-25T10:20:06;97200.88;;;25.66;47.08
69187;BME280;56301;56.864;60.554;2023-03-25T10:22:38;97191.31;;;25.63;45.62
69187;BME280;56301;56.864;60.554;2023-03-25T10:25:13;97189.09;;;25.60;46.50
69187;BME280;56301;56.864;60.554;2023-03-25T10:27:41;97192.47;;;25.56;45.93
69187;BME280;56301;56.864;60.554;2023-03-25T10:30:40;97192.91;;;25.53;46.89
69187;BME280;56301;56.864;60.554;2023-03-25T10:32:56;97191.06;;;25.53;45.84
69187;BME280;56301;56.864;60.554;2023-03-25T10:35:22;97195.03;;;25.51;46.45
69187;BME280;56301;56.864;60.554;2023-03-25T10:37:45;97199.63;;;25.50;46.39
69187;BME280;56301;56.864;60.554;2023-03-25T10:40:24;97193.38;;;25.50;46.88
69187;BME280;56301;56.864;60.554;2023-03-25T10:42:53;97195.47;;;25.48;46.29
69187;BME280;56301;56.864;60.554;2023-03-25T10:45:16;97191.94;;;25.47;46.65
69187;BME280;56301;56.864;60.554;2023-03-25T10:47:39;97194.66;;;25.47;47.10
69187;BME280;56301;56.864;60.554;2023-03-25T10:50:04;97194.03;;;25.45;46.47
69187;BME280;56301;56.864;60.554;2023-03-25T10:52:27;97186.78;;;25.45;46.60
69187;BME280;56301;56.864;60.554;2023-03-25T10:54:51;97196.75;;;25.45;47.31
69187;BME280;56301;56.864;60.554;2023-03-25T10:57:19;97195.09;;;25.44;46.56
69187;BME280;56301;56.864;60.554;2023-03-25T10:59:44;97199.69;;;25.43;46.76
69187;BME280;56301;56.864;60.554;2023-03-25T11:04:39;97189.94;;;25.42;47.42
69187;BME280;56301;56.864;60.554;2023-03-25T11:07:08;97196.38;;;25.41;47.00
69187;BME280;56301;56.864;60.554;2023-03-25T11:09:35;97210.16;;;25.40;47.31
69187;BME280;56301;56.864;60.554;2023-03-25T11:12:01;97206.84;;;25.38;46.92
69187;BME280;56301;56.864;60.554;2023-03-25T11:14:26;97214.38;;;25.36;46.50
69187;BME280;56301;56.864;60.554;2023-03-25T11:16:56;97208.13;;;25.35;47.49
69187;BME280;56301;56.864;60.554;2023-03-25T11:19:23;97201.28;;;25.33;47.94
69187;BME280;56301;56.864;60.554;2023-03-25T11:21:47;97215.25;;;25.30;47.13
69187;BME280;56301;56.864;60.554;2023-03-25T11:24:15;97215.50;;;25.28;47.13
69187;BME280;56301;56.864;60.554;2023-03-25T11:26:39;97217.16;;;25.29;47.37
69187;BME280;56301;56.864;60.554;2023-03-25T11:29:10;97219.47;;;25.26;47.18
69187;BME280;56301;56.864;60.554;2023-03-25T11:31:35;97225.94;;;25.25;47.22
69187;BME280;56301;56.864;60.554;2023-03-25T11:36:30;97229.09;;;25.21;46.92
69187;BME280;56301;56.864;60.554;2023-03-25T11:39:08;97232.88;;;25.20;47.19
69187;BME280;56301;56.864;60.554;2023-03-25T11:41:33;97237.66;;;25.18;46.98
69187;BME280;56301;56.864;60.554;2023-03-25T11:43:56;97235.41;;;25.15;47.13
69187;BME280;56301;56.864;60.554;2023-03-25T11:46:19;97241.03;;;25.14;46.45
69187;BME280;56301;56.864;60.554;2023-03-25T11:48:44;97246.22;;;25.15;46.89
69187;BME280;56301;56.864;60.554;2023-03-25T11:51:10;97239.97;;;25.15;46.72
69187;BME280;56301;56.864;60.554;2023-03-25T11:53:34;97248.34;;;25.13;46.89
69187;BME280;56301;56.864;60.554;2023-03-25T11:56:04;97242.09;;;25.13;47.49
69187;BME280;56301;56.864;60.554;2023-03-25T11:58:28;97248.53;;;25.12;47.80
69187;BME280;56301;56.864;60.554;2023-03-25T12:00:58;97248.53;;;25.12;46.86
69187;BME280;56301;56.864;60.554;2023-03-25T12:03:24;97250.44;;;25.11;47.39
69187;BME280;56301;56.864;60.554;2023-03-25T12:06:15;97256.25;;;25.08;47.75
69187;BME280;56301;56.864;60.554;2023-03-25T12:08:50;97253.31;;;25.16;47.94
69187;BME280;56301;56.864;60.554;2023-03-25T12:11:15;97263.53;;;25.14;48.09
69187;BME280;56301;56.864;60.554;2023-03-25T12:14:28;97263.13;;;25.11;47.79
69187;BME280;56301;56.864;60.554;2023-03-25T12:16:34;97260.84;;;25.08;48.16
69187;BME280;56301;56.864;60.554;2023-03-25T12:26:48;97282.16;;;24.97;48.76
69187;BME280;56301;56.864;60.554;2023-03-25T12:51:26;97316.50;;;24.97;48.46
69187;BME280;56301;56.864;60.554;2023-03-25T12:54:02;97320.88;;;24.98;47.99
69187;BME280;56301;56.864;60.554;2023-03-25T12:56:31;97323.56;;;24.98;48.04
69187;BME280;56301;56.864;60.554;2023-03-25T13:07:04;97336.50;;;24.96;47.50
69187;BME280;56301;56.864;60.554;2023-03-25T13:09:47;97341.53;;;24.92;47.58
69187;BME280;56301;56.864;60.554;2023-03-25T13:12:25;97339.66;;;24.93;48.16
69187;BME280;56301;56.864;60.554;2023-03-25T13:14:59;97351.47;;;24.98;47.75
69187;BME280;56301;56.864;60.554;2023-03-25T13:18:23;97346.06;;;24.98;48.24
69187;BME280;56301;56.864;60.554;2023-03-25T13:20:15;97341.09;;;24.95;48.87
69187;BME280;56301;56.864;60.554;2023-03-25T13:22:41;97352.75;;;24.96;48.87
69187;BME280;56301;56.864;60.554;2023-03-25T13:25:05;97358.16;;;24.96;48.33
69187;BME280;56301;56.864;60.554;2023-03-25T13:27:33;97356.50;;;24.95;48.65
69187;BME280;56301;56.864;60.554;2023-03-25T13:29:56;97365.06;;;24.92;47.46
69187;BME280;56301;56.864;60.554;2023-03-25T13:32:24;97359.66;;;24.92;48.86
69187;BME280;56301;56.864;60.554;2023-03-25T13:34:52;97361.28;;;24.93;48.46
69187;BME280;56301;56.864;60.554;2023-03-25T13:37:24;97374.59;;;24.94;48.32
69187;BME280;56301;56.864;60.554;2023-03-25T13:42:37;97372.94;;;24.93;48.21
69187;BME280;56301;56.864;60.554;2023-03-25T13:45:03;97377.53;;;24.93;47.56
69187;BME280;56301;56.864;60.554;2023-03-25T13:47:30;97379.19;;;24.94;47.71
69187;BME280;56301;56.864;60.554;2023-03-25T13:49:56;97385.66;;;24.93;47.79
69187;BME280;56301;56.864;60.554;2023-03-25T13:52:21;97388.34;;;24.93;47.41
69187;BME280;56301;56.864;60.554;2023-03-25T13:54:49;97388.34;;;24.93;47.43
69187;BME280;56301;56.864;60.554;2023-03-25T13:57:23;97383.75;;;24.93;47.82
69187;BME280;56301;56.864;60.554;2023-03-25T14:02:39;97388.34;;;24.93;48.20
69187;BME280;56301;56.864;60.554;2023-03-25T14:05:19;97385.88;;;24.91;47.77
69187;BME280;56301;56.864;60.554;2023-03-25T14:07:55;97394.19;;;24.90;48.34
69187;BME280;56301;56.864;60.554;2023-03-25T14:10:27;97401.25;;;24.91;48.24
69187;BME280;56301;56.864;60.554;2023-03-25T14:12:54;97406.66;;;24.91;48.30
69187;BME280;56301;56.864;60.554;2023-03-25T14:15:19;97408.34;;;24.92;48.76
69187;BME280;56301;56.864;60.554;2023-03-25T14:17:42;97411.06;;;24.92;48.08
69187;BME280;56301;56.864;60.554;2023-03-25T14:20:05;97409.38;;;24.91;48.16
69187;BME280;56301;56.864;60.554;2023-03-25T14:22:29;97425.59;;;24.91;48.23